createdAt,value
2023-03-17T00:01:57.227Z,10.20
2023-03-17T00:04:26.042Z,10.20
2023-03-17T00:06:53.986Z,10.10
2023-03-17T00:09:22.599Z,10.10
2023-03-17T00:11:51.013Z,10.10
2023-03-17T00:14:20.026Z,10.10
2023-03-17T00:16:52.125Z,10.10
2023-03-17T00:19:31.444Z,10.10
2023-03-17T00:22:00.219Z,10.10
2023-03-17T00:24:29.652Z,10.10
2023-03-17T00:26:57.337Z,10.00
2023-03-17T00:29:25.650Z,10.00
2023-03-17T00:31:53.847Z,9.90
2023-03-17T00:34:23.588Z,9.90
2023-03-17T00:36:51.747Z,9.80
2023-03-17T00:39:19.494Z,9.90
2023-03-17T00:41:50.146Z,9.80
2023-03-17T00:44:17.685Z,9.80
2023-03-17T00:46:46.678Z,9.70
2023-03-17T00:49:23.741Z,9.70
2023-03-17T00:51:51.783Z,9.70
2023-03-17T00:54:20.955Z,9.80
2023-03-17T00:56:49.840Z,9.80
2023-03-17T00:59:41.063Z,9.80
2023-03-17T01:02:14.897Z,9.70
2023-03-17T01:04:49.938Z,9.60
2023-03-17T01:07:20.470Z,9.60
2023-03-17T01:09:47.747Z,9.60
2023-03-17T01:12:15.209Z,9.60
2023-03-17T01:14:42.640Z,9.60
2023-03-17T01:17:18.414Z,9.50
2023-03-17T01:19:47.100Z,9.50
2023-03-17T01:22:15.072Z,9.50
2023-03-17T01:24:42.404Z,9.50
2023-03-17T01:27:09.849Z,9.50
2023-03-17T01:29:37.925Z,9.50
2023-03-17T01:32:05.989Z,9.40
2023-03-17T01:34:34.018Z,9.40
2023-03-17T01:37:01.814Z,9.40
2023-03-17T01:39:29.295Z,9.40
2023-03-17T01:42:01.574Z,9.40
2023-03-17T01:44:29.826Z,9.40
2023-03-17T01:46:57.654Z,9.40
2023-03-17T01:49:30.933Z,9.30
2023-03-17T01:52:02.272Z,9.30
2023-03-17T01:54:56.373Z,9.30
2023-03-17T01:57:37.272Z,9.20
2023-03-17T02:00:09.688Z,9.20
2023-03-17T02:02:45.931Z,9.20
2023-03-17T02:05:18.113Z,9.20
2023-03-17T02:07:46.250Z,9.20
2023-03-17T02:10:16.024Z,9.10
2023-03-17T02:12:45.035Z,9.10
2023-03-17T02:15:12.793Z,9.20
2023-03-17T02:17:40.473Z,9.10
2023-03-17T02:20:18.937Z,9.10
2023-03-17T02:22:52.732Z,9.10
2023-03-17T02:25:22.629Z,9.00
2023-03-17T02:27:55.003Z,9.00
2023-03-17T02:30:24.394Z,9.00
2023-03-17T02:32:52.242Z,9.00
2023-03-17T02:35:22.550Z,9.00
2023-03-17T02:37:49.979Z,9.00
2023-03-17T02:40:17.602Z,9.00
2023-03-17T02:42:45.053Z,9.00
2023-03-17T02:45:13.813Z,9.00
2023-03-17T02:47:42.376Z,8.90
2023-03-17T02:50:21.513Z,8.90
2023-03-17T02:52:49.240Z,9.00
2023-03-17T02:55:17.194Z,9.00
2023-03-17T02:57:44.525Z,8.90
2023-03-17T03:00:13.562Z,9.00
2023-03-17T03:02:42.290Z,9.10
2023-03-17T03:05:10.918Z,9.20
2023-03-17T03:07:38.165Z,9.20
2023-03-17T03:10:05.959Z,9.20
2023-03-17T03:12:33.546Z,9.10
2023-03-17T03:15:00.972Z,9.10
2023-03-17T03:17:28.332Z,9.00
2023-03-17T03:19:55.628Z,9.00
2023-03-17T03:22:22.887Z,9.00
2023-03-17T03:24:50.321Z,8.90
2023-03-17T03:27:17.880Z,8.90
2023-03-17T03:29:45.171Z,8.90
2023-03-17T03:32:12.641Z,8.80
2023-03-17T03:34:39.944Z,8.80
2023-03-17T03:37:08.343Z,8.80
2023-03-17T03:39:35.670Z,8.80
2023-03-17T03:42:03.047Z,8.80
2023-03-17T03:44:30.374Z,8.80
2023-03-17T03:46:57.685Z,8.80
2023-03-17T03:49:25.129Z,8.80
2023-03-17T03:51:52.450Z,8.80
2023-03-17T03:54:19.795Z,8.80
2023-03-17T03:56:47.206Z,8.80
2023-03-17T03:59:15.285Z,8.80
2023-03-17T04:01:42.790Z,8.80
2023-03-17T04:04:10.198Z,8.80
2023-03-17T04:06:37.532Z,8.80
2023-03-17T04:09:04.893Z,8.70
2023-03-17T04:11:32.717Z,8.60
2023-03-17T04:14:00.060Z,8.60
2023-03-17T04:16:27.504Z,8.60
2023-03-17T04:18:54.828Z,8.60
2023-03-17T04:21:22.416Z,8.50
2023-03-17T04:23:49.702Z,8.50
2023-03-17T04:26:18.993Z,8.50
2023-03-17T04:28:46.368Z,8.50
2023-03-17T04:31:14.051Z,8.50
2023-03-17T04:33:41.353Z,8.50
2023-03-17T04:36:11.721Z,8.40
2023-03-17T04:38:39.074Z,8.40
2023-03-17T04:41:06.464Z,8.40
2023-03-17T04:43:33.829Z,8.40
2023-03-17T04:46:01.274Z,8.40
2023-03-17T04:48:28.754Z,8.40
2023-03-17T04:50:55.981Z,8.40
2023-03-17T04:53:23.436Z,8.40
2023-03-17T04:55:50.724Z,8.30
2023-03-17T04:58:29.815Z,8.30
2023-03-17T05:00:57.955Z,8.30
2023-03-17T05:03:27.691Z,8.30
2023-03-17T05:05:55.756Z,8.30
2023-03-17T05:08:23.169Z,8.30
2023-03-17T05:10:51.461Z,8.30
2023-03-17T05:13:19.329Z,8.30
2023-03-17T05:15:51.776Z,8.20
2023-03-17T05:18:20.101Z,8.20
2023-03-17T05:20:47.530Z,8.20
2023-03-17T05:23:15.294Z,8.30
2023-03-17T05:25:42.750Z,8.30
2023-03-17T05:28:10.306Z,8.30
2023-03-17T05:30:38.058Z,8.30
2023-03-17T05:33:06.366Z,8.40
2023-03-17T05:35:34.064Z,8.40
2023-03-17T05:38:01.838Z,8.40
2023-03-17T05:40:29.391Z,8.50
2023-03-17T05:42:57.005Z,8.50
2023-03-17T05:45:24.491Z,8.50
2023-03-17T05:47:51.827Z,8.60
2023-03-17T05:50:19.212Z,8.60
2023-03-17T05:52:47.893Z,8.60
2023-03-17T05:55:16.057Z,8.70
2023-03-17T05:57:43.392Z,8.70
2023-03-17T06:00:12.845Z,8.80
2023-03-17T06:02:40.770Z,9.00
2023-03-17T06:05:09.070Z,9.10
2023-03-17T06:07:50.838Z,9.20
2023-03-17T06:10:20.759Z,9.30
2023-03-17T06:12:48.143Z,9.30
2023-03-17T06:15:16.877Z,9.40
2023-03-17T06:17:44.689Z,9.50
2023-03-17T06:20:13.606Z,9.50
2023-03-17T06:22:55.227Z,9.60
2023-03-17T06:25:31.021Z,9.80
2023-03-17T06:27:58.638Z,10.00
2023-03-17T06:30:26.036Z,10.20
2023-03-17T06:32:53.327Z,10.40
2023-03-17T06:35:20.748Z,10.50
2023-03-17T06:37:48.020Z,10.60
2023-03-17T06:40:16.366Z,10.80
2023-03-17T06:42:43.736Z,10.90
2023-03-17T06:45:12.227Z,11.10
2023-03-17T06:47:39.995Z,11.20
2023-03-17T06:50:12.883Z,11.40
2023-03-17T06:52:41.073Z,11.50
2023-03-17T06:55:09.041Z,11.50
2023-03-17T06:57:36.717Z,11.60
2023-03-17T07:00:08.908Z,11.70
2023-03-17T07:02:36.254Z,11.80
2023-03-17T07:05:03.934Z,11.90
2023-03-17T07:07:31.772Z,12.00
2023-03-17T07:09:59.705Z,12.10
2023-03-17T07:12:27.363Z,12.30
2023-03-17T07:14:54.601Z,12.40
2023-03-17T07:17:21.933Z,12.50
2023-03-17T07:19:49.290Z,12.50
2023-03-17T07:22:16.668Z,12.60
2023-03-17T07:24:45.104Z,12.70
2023-03-17T07:27:12.717Z,12.70
2023-03-17T07:29:40.046Z,12.80
2023-03-17T07:32:08.592Z,13.00
2023-03-17T07:34:36.680Z,12.90
2023-03-17T07:37:04.768Z,13.00
2023-03-17T07:39:32.179Z,12.90
2023-03-17T07:41:59.678Z,12.90
2023-03-17T07:44:27.692Z,12.80
2023-03-17T07:46:55.381Z,12.90
2023-03-17T07:49:38.107Z,13.00
2023-03-17T07:52:09.432Z,13.10
2023-03-17T07:54:37.849Z,13.20
2023-03-17T07:57:06.503Z,13.20
2023-03-17T07:59:34.187Z,13.10
2023-03-17T08:02:01.856Z,13.10
2023-03-17T08:04:29.642Z,13.10
2023-03-17T08:06:57.829Z,13.20
2023-03-17T08:09:25.840Z,13.30
2023-03-17T08:11:53.439Z,13.30
2023-03-17T08:14:20.701Z,13.40
2023-03-17T08:16:48.372Z,13.40
2023-03-17T08:19:16.454Z,13.40
2023-03-17T08:21:43.747Z,13.60
2023-03-17T08:24:11.336Z,13.70
2023-03-17T08:26:38.619Z,13.80
2023-03-17T08:29:06.089Z,13.90
2023-03-17T08:31:34.183Z,13.80
2023-03-17T08:34:03.498Z,13.80
2023-03-17T08:36:30.907Z,13.90
2023-03-17T08:38:58.955Z,14.00
2023-03-17T08:41:27.678Z,14.00
2023-03-17T08:43:55.639Z,14.10
2023-03-17T08:46:28.829Z,14.30
2023-03-17T08:48:58.214Z,14.20
2023-03-17T08:51:28.745Z,14.20
2023-03-17T08:53:56.553Z,14.20
2023-03-17T08:56:24.173Z,14.20
2023-03-17T08:58:52.140Z,14.20
2023-03-17T09:01:21.442Z,14.20
2023-03-17T09:03:49.793Z,14.30
2023-03-17T09:06:17.223Z,14.40
2023-03-17T09:08:47.462Z,14.40
2023-03-17T09:11:18.177Z,14.50
2023-03-17T09:13:46.713Z,14.50
2023-03-17T09:16:16.374Z,14.50
2023-03-17T09:18:45.280Z,14.70
2023-03-17T09:21:14.111Z,14.70
2023-03-17T09:23:41.943Z,14.70
2023-03-17T09:26:10.376Z,14.70
2023-03-17T09:28:38.385Z,14.70
2023-03-17T09:31:11.675Z,14.80
2023-03-17T09:33:40.862Z,14.80
2023-03-17T09:36:09.987Z,14.70
2023-03-17T09:38:38.150Z,14.70
2023-03-17T09:41:20.571Z,14.60
2023-03-17T09:43:56.900Z,14.70
2023-03-17T09:46:42.640Z,14.80
2023-03-17T09:49:16.003Z,14.80
2023-03-17T09:51:46.525Z,14.50
2023-03-17T09:54:33.814Z,14.70
2023-03-17T09:57:18.840Z,14.80
2023-03-17T09:59:55.280Z,14.90
2023-03-17T10:02:28.899Z,14.80
2023-03-17T10:04:57.649Z,14.90
2023-03-17T10:07:47.391Z,15.00
2023-03-17T10:10:29.455Z,14.80
2023-03-17T10:13:10.817Z,15.00
2023-03-17T10:15:58.532Z,15.20
2023-03-17T10:18:30.478Z,15.30
2023-03-17T10:21:04.709Z,15.50
2023-03-17T10:23:36.280Z,15.50
2023-03-17T10:26:13.975Z,15.40
2023-03-17T10:28:41.794Z,15.50
2023-03-17T10:31:17.708Z,15.70
2023-03-17T10:33:49.331Z,15.70
2023-03-17T10:36:31.919Z,16.00
2023-03-17T10:38:59.303Z,16.10
2023-03-17T10:41:30.278Z,16.10
2023-03-17T10:43:58.568Z,15.70
2023-03-17T10:46:27.067Z,15.80
2023-03-17T10:48:57.709Z,15.90
2023-03-17T10:51:35.915Z,15.90
2023-03-17T10:54:09.875Z,16.00
2023-03-17T10:56:40.093Z,16.10
2023-03-17T10:59:20.343Z,16.00
2023-03-17T11:01:54.703Z,16.00
2023-03-17T11:04:44.269Z,15.90
2023-03-17T11:07:20.481Z,16.00
2023-03-17T11:09:52.734Z,16.20
2023-03-17T11:12:25.746Z,16.40
2023-03-17T11:15:00.890Z,16.80
2023-03-17T11:17:42.333Z,17.00
2023-03-17T11:20:09.754Z,17.30
2023-03-17T11:22:41.061Z,17.40
2023-03-17T11:25:16.332Z,17.30
2023-03-17T11:28:16.382Z,17.60
2023-03-17T11:31:09.955Z,17.50
2023-03-17T11:33:50.830Z,17.90
2023-03-17T11:36:18.777Z,17.80
2023-03-17T11:39:07.477Z,18.20
2023-03-17T11:41:45.014Z,18.30
2023-03-17T11:44:21.272Z,18.30
2023-03-17T11:47:12.777Z,18.50
2023-03-17T11:49:42.274Z,18.70
2023-03-17T11:52:22.463Z,18.90
2023-03-17T11:55:10.031Z,18.30
2023-03-17T11:58:10.774Z,18.60
2023-03-17T12:00:50.887Z,18.60
2023-03-17T12:03:27.800Z,18.50
2023-03-17T12:06:00.852Z,18.70
2023-03-17T12:08:53.850Z,19.00
2023-03-17T12:11:35.320Z,19.60
2023-03-17T12:14:07.031Z,19.70
2023-03-17T12:16:54.610Z,19.90
2023-03-17T12:20:01.387Z,19.90
2023-03-17T12:22:34.110Z,20.10
2023-03-17T12:25:05.096Z,20.40
2023-03-17T12:27:39.086Z,20.30
2023-03-17T12:30:15.689Z,19.80
2023-03-17T12:33:04.220Z,19.80
2023-03-17T12:35:38.845Z,19.90
2023-03-17T12:38:30.035Z,19.60
2023-03-17T12:41:27.597Z,19.20
2023-03-17T12:44:12.903Z,19.50
2023-03-17T12:47:08.412Z,20.20
2023-03-17T12:49:45.307Z,20.40
2023-03-17T12:52:37.667Z,20.20
2023-03-17T12:55:13.502Z,20.40
2023-03-17T12:57:46.437Z,20.90
2023-03-17T13:00:24.664Z,20.90
2023-03-17T13:03:12.312Z,21.20
2023-03-17T13:05:45.061Z,20.90
2023-03-17T13:08:22.347Z,21.20
2023-03-17T13:10:51.395Z,20.80
2023-03-17T13:13:45.400Z,20.90
2023-03-17T13:16:41.430Z,20.30
2023-03-17T13:19:27.084Z,19.90
2023-03-17T13:22:03.722Z,19.80
2023-03-17T13:24:51.253Z,20.20
2023-03-17T13:27:31.201Z,20.40
2023-03-17T13:30:00.708Z,20.50
2023-03-17T13:32:27.991Z,20.30
2023-03-17T13:35:01.824Z,20.50
2023-03-17T13:37:33.940Z,20.70
2023-03-17T13:40:17.196Z,20.50
2023-03-17T13:43:02.247Z,20.50
2023-03-17T13:45:46.739Z,20.30
2023-03-17T13:48:34.882Z,20.50
2023-03-17T13:51:27.560Z,19.70
2023-03-17T13:54:08.524Z,18.40
2023-03-17T13:56:41.774Z,17.30
2023-03-17T13:59:15.660Z,17.00
2023-03-17T14:01:43.289Z,16.80
2023-03-17T14:04:19.553Z,16.60
2023-03-17T14:06:51.004Z,16.10
2023-03-17T14:09:38.172Z,16.10
2023-03-17T14:12:12.616Z,16.10
2023-03-17T14:15:08.295Z,16.00
2023-03-17T14:17:47.022Z,15.90
2023-03-17T14:20:17.240Z,15.70
2023-03-17T14:22:47.278Z,15.70
2023-03-17T14:25:26.265Z,15.70
2023-03-17T14:27:56.382Z,15.70
2023-03-17T14:30:33.087Z,15.70
2023-03-17T14:33:04.288Z,15.60
2023-03-17T14:35:39.288Z,15.50
2023-03-17T14:38:34.476Z,15.50
2023-03-17T14:41:18.423Z,15.40
2023-03-17T14:43:46.899Z,15.30
2023-03-17T14:46:38.062Z,15.20
2023-03-17T14:49:19.714Z,15.10
2023-03-17T14:51:50.871Z,15.30
2023-03-17T14:54:24.917Z,15.30
2023-03-17T14:57:02.456Z,15.10
2023-03-17T14:59:39.070Z,15.10
2023-03-17T15:02:34.537Z,15.20
2023-03-17T15:05:11.047Z,15.10
2023-03-17T15:07:42.967Z,15.10
2023-03-17T15:10:17.636Z,15.10
2023-03-17T15:12:46.891Z,14.90
2023-03-17T15:15:26.020Z,14.80
2023-03-17T15:17:57.830Z,14.70
2023-03-17T15:20:25.848Z,14.70
2023-03-17T15:22:56.175Z,14.70
2023-03-17T15:25:44.750Z,14.60
2023-03-17T15:28:13.591Z,14.60
2023-03-17T15:30:49.127Z,14.50
2023-03-17T15:33:28.915Z,14.50
2023-03-17T15:35:57.044Z,14.40
2023-03-17T15:38:25.667Z,14.40
2023-03-17T15:40:53.441Z,14.30
2023-03-17T15:43:22.187Z,14.30
2023-03-17T15:45:58.369Z,14.30
2023-03-17T15:48:30.418Z,14.30
2023-03-17T15:51:00.313Z,14.20
2023-03-17T15:53:28.529Z,14.20
2023-03-17T15:55:55.826Z,14.10
2023-03-17T15:58:23.226Z,14.20
2023-03-17T16:00:58.068Z,14.00
2023-03-17T16:03:34.270Z,14.00
2023-03-17T16:06:03.485Z,14.10
2023-03-17T16:08:31.567Z,14.00
2023-03-17T16:10:58.918Z,14.00
2023-03-17T16:13:26.266Z,13.90
2023-03-17T16:15:57.351Z,13.80
2023-03-17T16:18:43.308Z,13.90
2023-03-17T16:21:10.881Z,13.90
2023-03-17T16:23:38.315Z,13.80
2023-03-17T16:26:14.771Z,13.70
2023-03-17T16:28:45.133Z,13.70
2023-03-17T16:31:20.933Z,13.70
2023-03-17T16:33:48.466Z,13.60
2023-03-17T16:36:18.420Z,13.60
2023-03-17T16:38:46.714Z,13.50
2023-03-17T16:41:19.377Z,13.50
2023-03-17T16:43:51.337Z,13.40
2023-03-17T16:46:21.201Z,13.40
2023-03-17T16:48:50.060Z,13.30
2023-03-17T16:51:17.579Z,13.30
2023-03-17T16:53:45.740Z,13.20
2023-03-17T16:56:21.649Z,13.20
2023-03-17T16:58:49.323Z,13.20
2023-03-17T17:01:20.850Z,13.10
2023-03-17T17:03:49.056Z,13.10
2023-03-17T17:06:17.189Z,13.00
2023-03-17T17:08:46.231Z,13.00
2023-03-17T17:11:15.820Z,13.00
2023-03-17T17:13:45.694Z,12.90
2023-03-17T17:16:23.032Z,12.90
2023-03-17T17:18:50.654Z,12.90
2023-03-17T17:21:18.024Z,12.80
2023-03-17T17:23:45.348Z,12.80
2023-03-17T17:26:12.682Z,12.80
2023-03-17T17:28:40.654Z,12.70
2023-03-17T17:31:09.764Z,12.70
2023-03-17T17:33:37.908Z,12.70
2023-03-17T17:36:11.182Z,12.70
2023-03-17T17:38:38.603Z,12.70
2023-03-17T17:41:07.107Z,12.60
2023-03-17T17:43:34.800Z,12.70
2023-03-17T17:46:02.568Z,12.70
2023-03-17T17:48:29.903Z,12.60
2023-03-17T17:50:58.469Z,12.60
2023-03-17T17:53:26.000Z,12.60
2023-03-17T17:55:53.375Z,12.60
2023-03-17T17:58:25.950Z,12.60
2023-03-17T18:00:57.322Z,12.60
2023-03-17T18:03:26.086Z,12.60
2023-03-17T18:05:57.603Z,12.60
2023-03-17T18:08:25.784Z,12.50
2023-03-17T18:10:53.235Z,12.50
2023-03-17T18:13:20.712Z,12.50
2023-03-17T18:15:48.008Z,12.50
2023-03-17T18:18:15.562Z,12.50
2023-03-17T18:20:43.029Z,12.50
2023-03-17T18:23:10.319Z,12.50
2023-03-17T18:25:37.738Z,12.50
2023-03-17T18:28:06.493Z,12.50
2023-03-17T18:30:35.416Z,12.40
2023-03-17T18:33:10.879Z,12.40
2023-03-17T18:35:38.687Z,12.40
2023-03-17T18:38:06.150Z,12.40
2023-03-17T18:40:33.926Z,12.40
2023-03-17T18:43:02.055Z,12.40
2023-03-17T18:45:29.416Z,12.40
2023-03-17T18:47:56.856Z,12.30
2023-03-17T18:50:24.356Z,12.30
2023-03-17T18:52:51.831Z,12.30
2023-03-17T18:55:19.246Z,12.30
2023-03-17T18:57:46.644Z,12.30
2023-03-17T19:00:16.673Z,12.30
2023-03-17T19:02:44.702Z,12.30
2023-03-17T19:05:13.006Z,12.30
2023-03-17T19:07:41.237Z,12.30
2023-03-17T19:10:10.461Z,12.30
2023-03-17T19:12:38.016Z,12.30
2023-03-17T19:15:07.409Z,12.30
2023-03-17T19:17:35.472Z,12.30
2023-03-17T19:20:02.821Z,12.30
2023-03-17T19:22:30.286Z,12.30
2023-03-17T19:24:57.635Z,12.30
2023-03-17T19:27:25.431Z,12.30
2023-03-17T19:29:52.826Z,12.20
2023-03-17T19:32:20.157Z,12.30
2023-03-17T19:34:47.969Z,12.20
2023-03-17T19:37:15.929Z,12.20
2023-03-17T19:39:46.092Z,12.20
2023-03-17T19:42:13.472Z,12.20
2023-03-17T19:44:40.829Z,12.20
2023-03-17T19:47:08.668Z,12.10
2023-03-17T19:49:37.733Z,12.10
2023-03-17T19:52:06.716Z,12.20
2023-03-17T19:54:34.681Z,12.20
2023-03-17T19:57:02.127Z,12.20
2023-03-17T19:59:29.566Z,12.20
2023-03-17T20:01:57.086Z,12.20
2023-03-17T20:04:24.472Z,12.10
2023-03-17T20:06:55.948Z,12.10
2023-03-17T20:09:26.218Z,12.10
2023-03-17T20:11:56.379Z,12.10
2023-03-17T20:14:24.405Z,12.00
2023-03-17T20:16:52.088Z,12.00
2023-03-17T20:19:21.636Z,12.00
2023-03-17T20:21:48.945Z,12.00
2023-03-17T20:24:16.786Z,12.00
2023-03-17T20:26:45.916Z,12.00
2023-03-17T20:29:14.572Z,12.00
2023-03-17T20:31:42.459Z,12.00
2023-03-17T20:34:10.733Z,12.00
2023-03-17T20:36:42.506Z,12.10
2023-03-17T20:39:15.120Z,12.10
2023-03-17T20:41:42.670Z,12.10
2023-03-17T20:44:09.931Z,12.10
2023-03-17T20:46:37.389Z,12.10
2023-03-17T20:49:05.948Z,12.20
2023-03-17T20:51:34.219Z,12.20
2023-03-17T20:54:02.568Z,12.20
2023-03-17T20:56:31.697Z,12.30
2023-03-17T20:58:59.258Z,12.30
2023-03-17T21:01:27.054Z,12.30
2023-03-17T21:03:54.546Z,12.20
2023-03-17T21:06:24.726Z,12.20
2023-03-17T21:08:53.946Z,12.10
2023-03-17T21:11:26.749Z,12.10
2023-03-17T21:13:54.710Z,12.00
2023-03-17T21:16:25.088Z,12.00
2023-03-17T21:18:53.530Z,11.90
2023-03-17T21:21:21.932Z,11.90
2023-03-17T21:23:49.383Z,11.80
2023-03-17T21:26:16.953Z,11.80
2023-03-17T21:28:44.435Z,11.80
2023-03-17T21:31:13.601Z,11.80
2023-03-17T21:33:42.308Z,11.70
2023-03-17T21:36:10.549Z,11.70
2023-03-17T21:38:37.830Z,11.70
2023-03-17T21:41:31.955Z,11.70
2023-03-17T21:44:00.512Z,11.70
2023-03-17T21:46:28.235Z,11.70
2023-03-17T21:48:56.237Z,11.70
2023-03-17T21:51:24.551Z,11.70
2023-03-17T21:53:53.078Z,11.70
2023-03-17T21:56:21.426Z,11.70
2023-03-17T21:58:49.279Z,11.60
2023-03-17T22:01:17.751Z,11.60
2023-03-17T22:03:45.310Z,11.50
2023-03-17T22:06:14.097Z,11.50
2023-03-17T22:08:41.729Z,11.40
2023-03-17T22:11:11.826Z,11.40
2023-03-17T22:13:40.037Z,11.40
2023-03-17T22:16:07.949Z,11.30
2023-03-17T22:18:36.766Z,11.30
2023-03-17T22:21:05.457Z,11.30
2023-03-17T22:23:37.310Z,11.20
2023-03-17T22:26:04.777Z,11.20
2023-03-17T22:28:32.131Z,11.10
2023-03-17T22:30:59.620Z,11.10
2023-03-17T22:33:27.048Z,11.10
2023-03-17T22:35:54.440Z,11.10
2023-03-17T22:38:24.615Z,11.10
2023-03-17T22:41:08.091Z,11.10
2023-03-17T22:43:36.985Z,11.00
2023-03-17T22:46:05.088Z,11.00
2023-03-17T22:48:32.985Z,11.00
2023-03-17T22:51:09.704Z,11.00
2023-03-17T22:53:38.358Z,10.90
2023-03-17T22:56:09.882Z,10.90
2023-03-17T22:58:38.215Z,10.90
2023-03-17T23:01:06.711Z,10.90
2023-03-17T23:03:34.406Z,10.90
2023-03-17T23:06:04.053Z,10.90
2023-03-17T23:08:35.255Z,10.90
2023-03-17T23:11:07.445Z,10.90
2023-03-17T23:13:35.592Z,10.90
2023-03-17T23:16:04.826Z,10.90
2023-03-17T23:18:32.744Z,10.90
2023-03-17T23:21:00.804Z,10.90
2023-03-17T23:23:28.593Z,10.90
2023-03-17T23:25:56.498Z,10.90
2023-03-17T23:28:24.294Z,10.90
2023-03-17T23:30:52.945Z,10.90
2023-03-17T23:33:23.038Z,10.90
2023-03-17T23:35:51.602Z,11.00
2023-03-17T23:38:19.839Z,11.00
2023-03-17T23:40:48.027Z,10.90
2023-03-17T23:43:15.601Z,11.00
2023-03-17T23:45:43.051Z,10.90
2023-03-17T23:48:11.373Z,10.90
2023-03-17T23:50:41.326Z,10.90
2023-03-17T23:53:09.728Z,10.80
2023-03-17T23:55:37.278Z,10.80
2023-03-17T23:58:05.186Z,10.80
